Alts de San Benito, Puerto Rico
Current Conditions -  °F | °C
As of 7:53 AM on Sunday 23 Nov 2014 (Local Time) from TJNR Reporting Station
Scattered Clouds Scattered Clouds  
Wind Chill: 27°   Ceiling: Unl
Heat Index: 30°   Visibility: 10mi
Dew Point: 22°   Wind: 8mph
Humidity: 74%   Direction: 90°E
Pressure: 30.06"   Gusts: NA
Location:  18.1494°N, 65.8294°W
Report Text: TJNR 231153Z AUTO 09007KT 10SM FEW049 SCT065 SCT090 27/22 A3006 RMK AO2 SLP177 60000 70005 T02720222 10272 20256 53018 $
Loading
Personal Weather Stations






























Interactive Weather Map New forecast layout! Learn more

10-Day Weather Forecast

Advertisements
Track Severe Weather on mobile